createdAt,value
2022-10-09T00:01:07.968Z,9.33
2022-10-09T00:03:39.012Z,9.20
2022-10-09T00:06:08.653Z,10.00
2022-10-09T00:08:39.235Z,8.90
2022-10-09T00:11:07.962Z,8.80
2022-10-09T00:13:36.503Z,8.63
2022-10-09T00:16:05.976Z,8.30
2022-10-09T00:18:34.039Z,9.00
2022-10-09T00:21:04.088Z,7.90
2022-10-09T00:23:32.118Z,7.90
2022-10-09T00:26:01.751Z,7.60
2022-10-09T00:28:34.363Z,8.07
2022-10-09T00:31:06.062Z,7.77
2022-10-09T00:33:34.711Z,9.10
2022-10-09T00:36:05.086Z,7.93
2022-10-09T00:38:33.245Z,7.63
2022-10-09T00:41:01.819Z,7.60
2022-10-09T00:43:45.747Z,7.40
2022-10-09T00:46:33.478Z,7.50
2022-10-09T00:49:06.566Z,7.13
2022-10-09T00:51:36.144Z,6.57
2022-10-09T00:54:08.334Z,6.47
2022-10-09T00:56:36.357Z,6.73
2022-10-09T00:59:04.988Z,6.40
2022-10-09T01:01:32.961Z,7.00
2022-10-09T01:04:00.977Z,6.30
2022-10-09T01:06:45.735Z,6.57
2022-10-09T01:09:17.362Z,6.40
2022-10-09T01:11:53.661Z,6.37
2022-10-09T01:14:27.110Z,6.73
2022-10-09T01:17:00.799Z,6.60
2022-10-09T01:19:50.948Z,7.30
2022-10-09T01:22:35.779Z,6.50
2022-10-09T01:25:08.013Z,6.67
2022-10-09T01:27:38.880Z,5.87
2022-10-09T01:30:09.919Z,6.87
2022-10-09T01:32:42.131Z,6.30
2022-10-09T01:35:12.234Z,6.23
2022-10-09T01:37:42.854Z,6.23
2022-10-09T01:40:13.596Z,6.57
2022-10-09T01:42:42.907Z,5.83
2022-10-09T01:45:11.724Z,5.70
2022-10-09T01:47:39.597Z,6.83
2022-10-09T01:50:16.911Z,6.27
2022-10-09T01:52:50.557Z,5.73
2022-10-09T01:55:29.628Z,5.77
2022-10-09T01:58:05.923Z,6.20
2022-10-09T02:00:38.176Z,5.77
2022-10-09T02:03:09.739Z,6.47
2022-10-09T02:05:39.943Z,5.60
2022-10-09T02:08:08.780Z,6.00
2022-10-09T02:10:38.704Z,5.50
2022-10-09T02:13:09.545Z,5.97
2022-10-09T02:15:45.104Z,5.50
2022-10-09T02:18:15.219Z,6.23
2022-10-09T02:20:48.011Z,5.73
2022-10-09T02:23:17.723Z,6.00
2022-10-09T02:25:45.968Z,5.97
2022-10-09T02:28:15.336Z,5.97
2022-10-09T02:30:51.912Z,5.40
2022-10-09T02:33:19.807Z,5.77
2022-10-09T02:35:48.362Z,6.10
2022-10-09T02:38:16.240Z,5.83
2022-10-09T02:40:44.099Z,6.03
2022-10-09T02:43:12.025Z,6.00
2022-10-09T02:45:41.230Z,5.77
2022-10-09T02:48:09.095Z,5.80
2022-10-09T02:50:37.231Z,6.33
2022-10-09T02:53:05.135Z,6.57
2022-10-09T02:55:33.040Z,6.33
2022-10-09T02:58:00.987Z,6.03
2022-10-09T03:00:29.057Z,7.03
2022-10-09T03:02:58.440Z,6.37
2022-10-09T03:05:26.520Z,6.40
2022-10-09T03:07:55.039Z,6.33
2022-10-09T03:10:23.592Z,6.20
2022-10-09T03:12:51.795Z,7.00
2022-10-09T03:15:19.736Z,6.10
2022-10-09T03:17:47.659Z,6.03
2022-10-09T03:20:17.376Z,6.97
2022-10-09T03:22:45.277Z,5.93
2022-10-09T03:25:13.214Z,6.40
2022-10-09T03:27:41.183Z,6.43
2022-10-09T03:30:10.443Z,5.47
2022-10-09T03:32:38.375Z,6.23
2022-10-09T03:35:06.839Z,6.10
2022-10-09T03:37:36.259Z,6.37
2022-10-09T03:40:04.413Z,5.70
2022-10-09T03:42:32.517Z,5.93
2022-10-09T03:45:04.311Z,5.83
2022-10-09T03:47:32.704Z,5.47
2022-10-09T03:50:00.620Z,5.57
2022-10-09T03:52:28.535Z,6.23
2022-10-09T03:54:57.727Z,5.90
2022-10-09T03:57:25.606Z,4.90
2022-10-09T03:59:53.564Z,6.03
2022-10-09T04:02:21.503Z,5.63
2022-10-09T04:04:49.443Z,6.53
2022-10-09T04:07:17.588Z,6.30
2022-10-09T04:09:45.720Z,5.80
2022-10-09T04:12:15.007Z,5.30
2022-10-09T04:14:42.904Z,6.30
2022-10-09T04:17:10.986Z,5.90
2022-10-09T04:19:38.892Z,5.73
2022-10-09T04:22:06.755Z,5.73
2022-10-09T04:24:34.682Z,5.47
2022-10-09T04:27:02.728Z,5.07
2022-10-09T04:29:31.987Z,5.00
2022-10-09T04:32:00.011Z,5.67
2022-10-09T04:34:27.952Z,4.80
2022-10-09T04:36:55.835Z,5.80
2022-10-09T04:39:23.776Z,5.30
2022-10-09T04:41:51.699Z,5.53
2022-10-09T04:44:19.823Z,5.17
2022-10-09T04:46:51.161Z,5.03
2022-10-09T04:49:19.602Z,5.20
2022-10-09T04:51:47.505Z,5.07
2022-10-09T04:54:15.410Z,4.90
2022-10-09T04:56:43.287Z,4.83
2022-10-09T04:59:11.160Z,5.27
2022-10-09T05:01:39.116Z,5.00
2022-10-09T05:04:08.423Z,5.50
2022-10-09T05:06:36.350Z,5.63
2022-10-09T05:09:04.598Z,5.07
2022-10-09T05:11:32.516Z,5.40
2022-10-09T05:14:00.638Z,4.90
2022-10-09T05:16:31.466Z,5.10
2022-10-09T05:19:00.827Z,5.00
2022-10-09T05:21:31.061Z,5.13
2022-10-09T05:23:59.049Z,5.63
2022-10-09T05:26:28.015Z,5.53
2022-10-09T05:28:55.896Z,5.07
2022-10-09T05:31:25.994Z,5.13
2022-10-09T05:33:54.548Z,4.77
2022-10-09T05:36:22.519Z,5.07
2022-10-09T05:38:51.746Z,4.73
2022-10-09T05:41:20.489Z,5.30
2022-10-09T05:43:50.486Z,4.87
2022-10-09T05:46:20.575Z,5.23
2022-10-09T05:48:52.817Z,5.37
2022-10-09T05:51:22.649Z,5.00
2022-10-09T05:53:52.338Z,5.13
2022-10-09T05:56:22.442Z,5.40
2022-10-09T05:58:52.560Z,5.23
2022-10-09T06:01:21.276Z,5.33
2022-10-09T06:03:50.991Z,5.57
2022-10-09T06:06:19.940Z,5.70
2022-10-09T06:08:48.240Z,4.73
2022-10-09T06:11:19.355Z,5.33
2022-10-09T06:13:48.033Z,4.80
2022-10-09T06:16:17.615Z,5.10
2022-10-09T06:18:49.252Z,5.23
2022-10-09T06:21:17.920Z,5.20
2022-10-09T06:23:49.438Z,5.23
2022-10-09T06:26:19.327Z,5.27
2022-10-09T06:28:48.208Z,6.07
2022-10-09T06:31:18.674Z,5.70
2022-10-09T06:33:48.491Z,7.27
2022-10-09T06:36:18.375Z,5.40
2022-10-09T06:38:46.607Z,6.17
2022-10-09T06:41:16.782Z,6.43
2022-10-09T06:43:50.647Z,7.07
2022-10-09T06:46:18.791Z,6.07
2022-10-09T06:48:46.737Z,5.63
2022-10-09T06:51:16.191Z,6.50
2022-10-09T06:53:46.139Z,6.37
2022-10-09T06:56:16.769Z,6.63
2022-10-09T06:58:46.547Z,7.17
2022-10-09T07:01:16.483Z,7.00
2022-10-09T07:03:46.031Z,6.93
2022-10-09T07:06:16.383Z,7.37
2022-10-09T07:08:46.507Z,6.60
2022-10-09T07:11:16.385Z,7.87
2022-10-09T07:13:45.948Z,8.37
2022-10-09T07:16:13.898Z,6.60
2022-10-09T07:18:41.808Z,7.17
2022-10-09T07:21:10.941Z,7.30
2022-10-09T07:23:38.903Z,6.53
2022-10-09T07:26:13.628Z,6.53
2022-10-09T07:28:42.548Z,6.37
2022-10-09T07:31:12.906Z,6.67
2022-10-09T07:33:41.575Z,6.63
2022-10-09T07:36:11.410Z,6.27
2022-10-09T07:38:39.320Z,6.40
2022-10-09T07:41:09.103Z,6.40
2022-10-09T07:43:37.957Z,6.40
2022-10-09T07:46:08.236Z,6.10
2022-10-09T07:48:37.743Z,6.17
2022-10-09T07:51:10.749Z,6.13
2022-10-09T07:53:39.135Z,5.73
2022-10-09T07:56:07.769Z,5.67
2022-10-09T07:58:35.896Z,6.10
2022-10-09T08:01:08.516Z,5.77
2022-10-09T08:03:38.964Z,5.27
2022-10-09T08:06:07.462Z,5.80
2022-10-09T08:08:35.456Z,5.97
2022-10-09T08:11:09.968Z,5.37
2022-10-09T08:13:37.958Z,5.47
2022-10-09T08:16:06.900Z,5.57
2022-10-09T08:18:35.437Z,5.57
2022-10-09T08:21:06.989Z,5.57
2022-10-09T08:23:35.163Z,6.63
2022-10-09T08:26:03.426Z,6.30
2022-10-09T08:28:31.654Z,6.47
2022-10-09T08:30:59.586Z,5.80
2022-10-09T08:33:27.820Z,5.50
2022-10-09T08:35:55.707Z,5.80
2022-10-09T08:38:45.945Z,5.50
2022-10-09T08:41:17.407Z,5.80
2022-10-09T08:43:48.724Z,5.57
2022-10-09T08:46:23.293Z,6.20
2022-10-09T08:48:54.647Z,5.93
2022-10-09T08:51:26.411Z,5.60
2022-10-09T08:54:02.551Z,5.53
2022-10-09T08:56:33.170Z,4.93
2022-10-09T08:59:02.837Z,4.90
2022-10-09T09:01:38.218Z,4.60
2022-10-09T09:04:23.549Z,4.83
2022-10-09T09:07:01.214Z,4.40
2022-10-09T09:09:41.420Z,4.10
2022-10-09T09:12:19.096Z,4.50
2022-10-09T09:14:59.144Z,4.13
2022-10-09T09:17:36.525Z,4.53
2022-10-09T09:20:11.830Z,4.50
2022-10-09T09:22:46.683Z,4.10
2022-10-09T09:25:21.181Z,4.60
2022-10-09T09:27:50.025Z,4.17
2022-10-09T09:30:22.214Z,4.20
2022-10-09T09:32:56.043Z,4.50
2022-10-09T09:35:33.160Z,4.13
2022-10-09T09:38:01.165Z,4.03
2022-10-09T09:40:37.559Z,3.37
2022-10-09T09:43:14.628Z,3.70
2022-10-09T09:45:43.773Z,3.93
2022-10-09T09:48:16.357Z,3.43
2022-10-09T09:50:53.060Z,3.60
2022-10-09T09:53:31.310Z,3.40
2022-10-09T09:56:00.971Z,3.73
2022-10-09T09:58:35.395Z,3.67
2022-10-09T10:01:06.370Z,5.10
2022-10-09T10:03:35.982Z,4.90
2022-10-09T10:06:04.245Z,7.20
2022-10-09T10:08:34.168Z,3.67
2022-10-09T10:11:06.922Z,2.83
2022-10-09T10:13:37.971Z,3.30
2022-10-09T10:16:07.925Z,3.50
2022-10-09T10:18:40.578Z,3.10
2022-10-09T10:21:12.971Z,3.30
2022-10-09T10:23:43.616Z,3.50
2022-10-09T10:26:22.391Z,2.63
2022-10-09T10:28:54.529Z,2.90
2022-10-09T10:31:36.442Z,3.10
2022-10-09T10:34:08.521Z,2.50
2022-10-09T10:36:37.643Z,3.13
2022-10-09T10:39:13.838Z,3.17
2022-10-09T10:41:48.617Z,2.80
2022-10-09T10:44:23.579Z,2.90
2022-10-09T10:46:55.737Z,2.60
2022-10-09T10:49:24.487Z,2.53
2022-10-09T11:52:59.695Z,2.50
2022-10-09T11:55:29.463Z,3.37
2022-10-09T11:58:09.205Z,3.53
2022-10-09T12:00:38.055Z,4.43
2022-10-09T12:03:08.063Z,3.10
2022-10-09T12:05:41.019Z,4.93
2022-10-09T12:08:18.336Z,3.20
2022-10-09T12:10:53.976Z,2.50
2022-10-09T12:13:32.755Z,2.40
2022-10-09T12:16:00.993Z,3.03
2022-10-09T12:18:32.167Z,2.30
2022-10-09T12:21:03.216Z,2.60
2022-10-09T12:23:38.264Z,2.73
2022-10-09T12:26:11.248Z,2.47
2022-10-09T12:28:44.197Z,2.70
2022-10-09T12:31:20.913Z,2.50
2022-10-09T12:33:54.272Z,2.47
2022-10-09T12:36:25.738Z,2.60
2022-10-09T12:38:55.068Z,2.20
2022-10-09T12:41:26.230Z,1.90
2022-10-09T12:43:56.588Z,2.37
2022-10-09T12:46:30.300Z,2.53
2022-10-09T12:48:59.374Z,2.40
2022-10-09T12:51:29.795Z,2.20
2022-10-09T12:53:59.101Z,2.27
2022-10-09T12:56:30.527Z,2.17
2022-10-09T12:58:59.541Z,1.97
2022-10-09T13:01:27.937Z,2.10
2022-10-09T13:03:57.293Z,1.97
2022-10-09T13:06:28.031Z,1.90
2022-10-09T13:09:00.742Z,2.37
2022-10-09T13:11:37.911Z,1.80
2022-10-09T13:14:06.148Z,2.10
2022-10-09T13:16:41.768Z,1.80
2022-10-09T13:19:24.256Z,1.97
2022-10-09T13:22:17.061Z,2.07
2022-10-09T13:24:46.412Z,1.90
2022-10-09T13:27:15.501Z,2.07
2022-10-09T13:29:44.055Z,1.90
2022-10-09T13:32:13.919Z,2.10
2022-10-09T13:34:41.802Z,2.10
2022-10-09T13:37:12.480Z,1.73
2022-10-09T13:39:40.344Z,1.90
2022-10-09T13:42:12.380Z,1.70
2022-10-09T13:44:40.238Z,1.97
2022-10-09T13:47:08.170Z,1.90
2022-10-09T13:49:36.119Z,1.83
2022-10-09T13:52:04.246Z,2.07
2022-10-09T13:54:32.111Z,1.80
2022-10-09T13:57:00.040Z,1.83
2022-10-09T13:59:31.252Z,1.90
2022-10-09T14:01:59.898Z,1.90
2022-10-09T14:04:28.222Z,1.70
2022-10-09T14:06:56.314Z,1.80
2022-10-09T14:09:24.409Z,1.60
2022-10-09T14:11:52.312Z,1.80
2022-10-09T14:14:22.227Z,1.67
2022-10-09T14:16:51.649Z,2.40
2022-10-09T14:19:19.645Z,2.33
2022-10-09T14:21:47.740Z,2.20
2022-10-09T14:24:15.755Z,2.40
2022-10-09T14:26:45.519Z,2.53
2022-10-09T14:29:16.358Z,2.30
2022-10-09T14:31:44.283Z,2.20
2022-10-09T14:34:14.493Z,2.30
2022-10-09T14:36:42.879Z,2.37
2022-10-09T14:39:10.884Z,2.30
2022-10-09T14:41:38.709Z,2.20
2022-10-09T14:44:07.171Z,2.23
2022-10-09T14:46:37.518Z,2.37
2022-10-09T14:49:07.964Z,2.17
2022-10-09T14:51:39.003Z,2.17
2022-10-09T14:54:07.828Z,2.10
2022-10-09T14:56:54.293Z,2.70
2022-10-09T14:59:22.406Z,2.30
2022-10-09T15:01:50.247Z,2.23
2022-10-09T15:04:18.220Z,1.93
2022-10-09T15:06:47.458Z,2.00
2022-10-09T15:09:15.304Z,1.93
2022-10-09T15:11:43.250Z,1.90
2022-10-09T15:14:11.404Z,1.90
2022-10-09T15:16:39.227Z,2.07
2022-10-09T15:19:07.079Z,2.10
2022-10-09T15:21:36.401Z,2.20
2022-10-09T15:24:06.471Z,2.00
2022-10-09T15:26:36.696Z,2.10
2022-10-09T15:29:06.187Z,2.17
2022-10-09T15:31:35.788Z,2.20
2022-10-09T15:34:04.796Z,2.10
2022-10-09T15:36:35.830Z,1.90
2022-10-09T15:39:07.110Z,2.13
2022-10-09T15:41:37.876Z,2.20
2022-10-09T15:44:07.655Z,1.70
2022-10-09T15:46:35.574Z,2.07
2022-10-09T15:49:03.639Z,1.83
2022-10-09T15:51:33.063Z,1.97
2022-10-09T15:54:01.646Z,1.70
2022-10-09T15:56:34.823Z,1.90
2022-10-09T15:59:05.335Z,1.67
2022-10-09T16:01:33.205Z,2.00
2022-10-09T16:04:01.073Z,2.00
2022-10-09T16:06:28.921Z,2.20
2022-10-09T16:08:59.103Z,2.00
2022-10-09T16:11:27.171Z,1.83
2022-10-09T16:13:57.150Z,2.00
2022-10-09T16:16:27.386Z,1.90
2022-10-09T16:18:56.293Z,1.80
2022-10-09T16:21:27.310Z,1.70
2022-10-09T16:23:58.801Z,2.40
2022-10-09T16:26:28.237Z,1.77
2022-10-09T16:28:57.439Z,2.13
2022-10-09T16:31:27.994Z,2.07
2022-10-09T16:33:55.991Z,2.00
2022-10-09T16:36:24.054Z,1.73
2022-10-09T16:38:51.872Z,1.90
2022-10-09T16:41:21.840Z,1.80
2022-10-09T16:43:51.635Z,2.00
2022-10-09T16:46:23.176Z,1.60
2022-10-09T16:48:54.143Z,1.73
2022-10-09T16:51:26.165Z,1.80
2022-10-09T16:53:55.856Z,1.80
2022-10-09T16:56:25.655Z,1.50
2022-10-09T16:58:55.806Z,1.70
2022-10-09T17:01:25.603Z,2.00
2022-10-09T17:03:55.135Z,1.97
2022-10-09T17:06:24.095Z,1.77
2022-10-09T17:08:52.305Z,1.40
2022-10-09T17:11:20.660Z,1.80
2022-10-09T17:13:48.967Z,1.80
2022-10-09T17:16:19.319Z,1.80
2022-10-09T17:18:49.060Z,2.40
2022-10-09T17:21:19.093Z,2.00
2022-10-09T17:23:47.744Z,1.90
2022-10-09T17:26:17.448Z,2.30
2022-10-09T17:28:46.281Z,2.23
2022-10-09T17:31:16.382Z,2.53
2022-10-09T17:33:46.217Z,2.43
2022-10-09T17:36:17.134Z,2.30
2022-10-09T17:38:45.831Z,2.30
2022-10-09T17:41:17.680Z,2.43
2022-10-09T17:43:45.966Z,2.60
2022-10-09T17:46:15.122Z,2.50
2022-10-09T17:48:45.116Z,2.40
2022-10-09T17:51:18.138Z,2.63
2022-10-09T17:53:48.054Z,2.40
2022-10-09T17:56:16.430Z,2.70
2022-10-09T17:58:47.282Z,2.90
2022-10-09T18:01:15.947Z,2.87
2022-10-09T18:03:44.613Z,2.63
2022-10-09T18:06:14.497Z,3.30
2022-10-09T18:08:43.864Z,2.60
2022-10-09T18:11:14.529Z,3.03
2022-10-09T18:13:44.245Z,3.17
2022-10-09T18:16:14.519Z,2.90
2022-10-09T18:18:42.447Z,2.80
2022-10-09T18:21:12.006Z,2.77
2022-10-09T18:23:40.447Z,3.43
2022-10-09T18:26:10.946Z,3.50
2022-10-09T18:28:38.800Z,3.40
2022-10-09T18:31:07.817Z,3.27
2022-10-09T18:33:36.423Z,3.40
2022-10-09T18:36:06.440Z,2.73
2022-10-09T18:38:34.668Z,2.87
2022-10-09T18:41:02.819Z,3.20
2022-10-09T18:43:32.013Z,2.93
2022-10-09T18:46:00.701Z,3.30
2022-10-09T18:48:30.488Z,3.37
2022-10-09T18:50:59.012Z,3.17
2022-10-09T18:53:26.944Z,2.80
2022-10-09T18:55:54.820Z,3.37
2022-10-09T18:58:22.870Z,3.10
2022-10-09T19:00:52.142Z,3.40
2022-10-09T19:03:20.015Z,3.20
2022-10-09T19:05:48.012Z,3.07
2022-10-09T19:08:15.884Z,3.60
2022-10-09T19:10:43.808Z,3.43
2022-10-09T19:13:11.955Z,3.37
2022-10-09T19:15:39.786Z,3.40
2022-10-09T19:18:08.952Z,3.23
2022-10-09T19:20:39.847Z,3.23
2022-10-09T19:23:08.387Z,3.63
2022-10-09T19:25:36.195Z,3.33
2022-10-09T19:28:04.085Z,3.90
2022-10-09T19:30:32.034Z,3.97
2022-10-09T19:32:59.868Z,3.90
2022-10-09T19:35:29.028Z,3.80
2022-10-09T19:37:56.868Z,3.70
2022-10-09T19:40:24.686Z,4.00
2022-10-09T19:42:52.769Z,3.60
2022-10-09T19:45:20.664Z,4.20
2022-10-09T19:47:53.506Z,4.50
2022-10-09T19:50:22.127Z,4.53
2022-10-09T19:52:51.316Z,4.83
2022-10-09T19:55:19.177Z,4.30
2022-10-09T19:57:47.280Z,4.43
2022-10-09T20:00:15.999Z,4.07
2022-10-09T20:02:43.795Z,4.20
2022-10-09T20:05:11.715Z,4.50
2022-10-09T20:07:39.507Z,4.10
2022-10-09T20:10:09.676Z,4.50
2022-10-09T20:12:37.611Z,4.10
2022-10-09T20:15:06.266Z,4.87
2022-10-09T20:17:34.068Z,4.80
2022-10-09T20:20:04.707Z,4.80
2022-10-09T20:22:32.539Z,4.70
2022-10-09T20:25:00.362Z,4.40
2022-10-09T20:27:30.637Z,4.60
2022-10-09T20:29:58.495Z,4.80
2022-10-09T20:32:26.431Z,4.50
2022-10-09T20:34:54.351Z,4.60
2022-10-09T20:37:22.183Z,4.57
2022-10-09T20:39:50.027Z,4.80
2022-10-09T20:42:17.822Z,4.63
2022-10-09T20:44:47.136Z,5.07
2022-10-09T20:47:14.947Z,4.40
2022-10-09T20:49:43.560Z,4.90
2022-10-09T20:52:11.447Z,4.80
2022-10-09T20:54:39.262Z,4.43
2022-10-09T20:57:07.094Z,4.60
2022-10-09T20:59:34.924Z,4.60
2022-10-09T21:02:04.116Z,4.50
2022-10-09T21:04:32.124Z,4.87
2022-10-09T21:06:59.959Z,4.47
2022-10-09T21:09:32.973Z,4.47
2022-10-09T21:12:02.301Z,5.13
2022-10-09T21:14:30.155Z,4.60
2022-10-09T21:16:58.000Z,4.80
2022-10-09T21:19:27.288Z,4.80
2022-10-09T21:21:55.110Z,4.70
2022-10-09T21:24:23.079Z,5.00
2022-10-09T21:26:50.900Z,4.90
2022-10-09T21:29:18.740Z,5.20
2022-10-09T21:31:46.588Z,5.17
2022-10-09T21:34:14.436Z,5.40
2022-10-09T21:39:33.562Z,5.40
2022-10-09T21:42:01.439Z,5.70
2022-10-09T21:44:30.002Z,5.33
2022-10-09T21:46:57.850Z,5.60
2022-10-09T21:49:27.892Z,5.60
2022-10-09T21:51:57.294Z,5.47
2022-10-09T21:54:25.256Z,5.90
2022-10-09T21:56:53.314Z,5.37
2022-10-09T21:59:21.169Z,5.60
2022-10-09T22:01:48.999Z,5.67
2022-10-09T22:04:16.796Z,5.20
2022-10-09T22:06:44.649Z,5.57
2022-10-09T22:09:13.875Z,5.87
2022-10-09T22:11:41.793Z,5.40
2022-10-09T22:14:09.619Z,5.27
2022-10-09T22:16:37.573Z,6.07
2022-10-09T22:19:05.440Z,5.30
2022-10-09T22:21:33.266Z,5.20
2022-10-09T22:24:01.399Z,5.70
2022-10-09T22:26:30.604Z,5.20
2022-10-09T22:28:58.606Z,5.53
2022-10-09T22:31:27.862Z,5.53
2022-10-09T22:33:57.842Z,5.53
2022-10-09T22:36:27.728Z,5.27
2022-10-09T22:38:56.879Z,5.23
2022-10-09T22:41:26.447Z,5.20
2022-10-09T22:43:58.179Z,5.73
2022-10-09T22:46:28.259Z,5.50
2022-10-09T22:48:56.468Z,5.23
2022-10-09T22:51:25.781Z,5.27
2022-10-09T22:53:53.807Z,5.20
2022-10-09T22:56:23.575Z,6.10
2022-10-09T22:58:52.958Z,5.50
2022-10-09T23:01:25.098Z,5.43
2022-10-09T23:03:53.075Z,5.20
2022-10-09T23:06:21.215Z,5.50
2022-10-09T23:08:49.880Z,5.30
2022-10-09T23:11:19.545Z,5.90
2022-10-09T23:13:47.970Z,5.70
2022-10-09T23:16:16.267Z,5.57
2022-10-09T23:18:45.563Z,5.30
2022-10-09T23:21:15.959Z,5.57
2022-10-09T23:23:45.321Z,5.50
2022-10-09T23:26:15.077Z,6.10
2022-10-09T23:28:43.625Z,5.57
2022-10-09T23:31:13.265Z,5.60
2022-10-09T23:33:42.087Z,6.03
2022-10-09T23:36:13.795Z,5.97
2022-10-09T23:38:42.171Z,5.87
2022-10-09T23:41:13.086Z,5.67
2022-10-09T23:43:42.466Z,5.93
2022-10-09T23:46:13.874Z,6.47
2022-10-09T23:48:41.718Z,5.67
2022-10-09T23:51:11.375Z,5.83
2022-10-09T23:53:39.248Z,6.13
2022-10-09T23:56:12.143Z,5.67
2022-10-09T23:58:39.952Z,5.43
